ADDS METAR Data

Data at: 2047 UTC 15 Aug 2018

METAR for:EGLF (Farnborough Arpt, --, UK)
Text:EGLF 151820Z 21010KT 9999 FEW026 20/15 Q1016
Temperature: 20.0°C ( 68°F)
Dewpoint: 15.0°C ( 59°F) [RH = 73%]
Pressure (altimeter):30.00 inches Hg (1016.0 mb)
Winds:from the SSW (210 degrees) at 12 MPH (10 knots; 5.1 m/s)
Visibility:6 or more sm (10+ km)
Ceiling:at least 12,000 feet AGL
Clouds: few clouds at 2600 feet AGL

TAF for:EGLF (Farnborough Arpt, --, UK) issued at 1700 UTC 15 Aug 2018
Text:TAF EGLF 151700Z 1518/1521 23012KT 9999 BKN032
Forecast period:1800 to 2100 UTC 15 August 2018
Forecast type:FROM: standard forecast or significant change
Winds:from the SW (230 degrees) at 14 MPH (12 knots; 6.2 m/s)
Visibility:6 or more sm (10+ km)
Ceiling:3200 feet AGL
Clouds: broken clouds at 3200 feet AGL

METAR for:EGUB (Benson(RAF), --, UK)
Text:EGUB 151950Z 21012KT 9999 FEW025 BKN032 20/15 Q1015 BLU NOSIG
Temperature: 20.0°C ( 68°F)
Dewpoint: 15.0°C ( 59°F) [RH = 73%]
Pressure (altimeter):29.97 inches Hg (1015.0 mb)
Winds:from the SSW (210 degrees) at 14 MPH (12 knots; 6.2 m/s)
Visibility:6 or more sm (10+ km)
Ceiling:3200 feet AGL
Clouds: few clouds at 2500 feet AGL, broken clouds at 3200 feet AGL

TAF for:EGUB (Benson(RAF), --, UK) issued at 1933 UTC 15 Aug 2018
Text:TAF EGUB 151933Z 1521/1601 22008KT 9999 BKN035
Forecast period:2100 UTC 15 August 2018 to 0100 UTC 16 August 2018
Forecast type:FROM: standard forecast or significant change
Winds:from the SW (220 degrees) at 9 MPH (8 knots; 4.1 m/s)
Visibility:6 or more sm (10+ km)
Ceiling:3500 feet AGL
Clouds: broken clouds at 3500 feet AGL
Text:PROB30
Forecast period:2100 UTC 15 August 2018 to 0100 UTC 16 August 2018
Forecast type:TEMPORARY: The following changes expected for less than half the time period
Ceiling:at least 12,000 feet AGL
Clouds: scattered clouds at 2300 feet AGL

METAR for:EGVO (Odiham(RAF), --, UK)
Text:EGVO 151950Z 22013KT 9999 FEW025 BKN035 19/14 Q1016 BLU NOSIG
Temperature: 19.0°C ( 66°F)
Dewpoint: 14.0°C ( 57°F) [RH = 73%]
Pressure (altimeter):30.00 inches Hg (1016.0 mb)
Winds:from the SW (220 degrees) at 15 MPH (13 knots; 6.7 m/s)
Visibility:6 or more sm (10+ km)
Ceiling:3500 feet AGL
Clouds: few clouds at 2500 feet AGL, broken clouds at 3500 feet AGL

TAF for:EGVO (Odiham(RAF), --, UK) issued at 1931 UTC 15 Aug 2018
Text:TAF EGVO 151931Z 1521/1609 22012KT 9999 FEW022 BKN035
Forecast period:2100 UTC 15 August 2018 to 0900 UTC 16 August 2018
Forecast type:FROM: standard forecast or significant change
Winds:from the SW (220 degrees) at 14 MPH (12 knots; 6.2 m/s)
Visibility:6 or more sm (10+ km)
Ceiling:3500 feet AGL
Clouds: few clouds at 2200 feet AGL, broken clouds at 3500 feet AGL
Text:PROB40
Forecast period:2200 UTC 15 August 2018 to 0700 UTC 16 August 2018
Forecast type:TEMPORARY: The following changes expected for less than half the time period
Ceiling:1800 feet AGL
Clouds: broken clouds at 1800 feet AGL
Text:TEMPO 1522/1607 BKN018
Forecast period:0500 to 0800 UTC 16 August 2018
Forecast type:TEMPORARY: The following changes expected for less than half the time period
Winds:from the SSW (210 degrees) at 17 MPH (15 knots; 7.7 m/s) gusting to 29 MPH (25 knots; 12.9 m/s)
Clouds:missing
Text:TEMPO 1605/1608 21015G25KT
Forecast period:0700 to 0900 UTC 16 August 2018
Forecast type:TEMPORARY: The following changes expected for less than half the time period
Visibility: 3 sm ( 5 km)
Ceiling:at least 12,000 feet AGL
Clouds: scattered clouds at 1200 feet AGL
Weather:RA (moderate rain)

METAR for:EGTK (Oxford Arpt, --, UK)
Text:EGTK 151720Z 23013KT 9999 BKN040 22/14 Q1015
Temperature: 22.0°C ( 72°F)
Dewpoint: 14.0°C ( 57°F) [RH = 60%]
Pressure (altimeter):29.97 inches Hg (1015.0 mb)
Winds:from the SW (230 degrees) at 15 MPH (13 knots; 6.7 m/s)
Visibility:6 or more sm (10+ km)
Ceiling:4000 feet AGL
Clouds: broken clouds at 4000 feet AGL

TAF for:EGTK (Oxford Arpt, --, UK) issued at 1700 UTC 15 Aug 2018
Text:TAF EGTK 151700Z 1518/1522 22012KT 9999 SCT030
Forecast period:1800 to 2200 UTC 15 August 2018
Forecast type:FROM: standard forecast or significant change
Winds:from the SW (220 degrees) at 14 MPH (12 knots; 6.2 m/s)
Visibility:6 or more sm (10+ km)
Ceiling:at least 12,000 feet AGL
Clouds: scattered clouds at 3000 feet AGL
Text:PROB30
Forecast period:1800 to 2100 UTC 15 August 2018
Forecast type:TEMPORARY: The following changes expected for less than half the time period
Winds:from the SW (230 degrees) at 17 MPH (15 knots; 7.7 m/s) gusting to 29 MPH (25 knots; 12.9 m/s)
Clouds:missing

METAR for:EGHH (Bournemouth Intl, --, UK)
Text:EGHH 152020Z 24010KT 9999 FEW014 BKN037 18/16 Q1017
Temperature: 18.0°C ( 64°F)
Dewpoint: 16.0°C ( 61°F) [RH = 88%]
Pressure (altimeter):30.03 inches Hg (1017.0 mb)
Winds:from the WSW (240 degrees) at 12 MPH (10 knots; 5.1 m/s)
Visibility:6 or more sm (10+ km)
Ceiling:3700 feet AGL
Clouds: few clouds at 1400 feet AGL, broken clouds at 3700 feet AGL

TAF for:EGHH (Bournemouth Intl, --, UK) issued at 2000 UTC 15 Aug 2018
Text:TAF EGHH 152000Z 1521/1606 22009KT 9999 FEW014 SCT025
Forecast period:2100 UTC 15 August 2018 to 0600 UTC 16 August 2018
Forecast type:FROM: standard forecast or significant change
Winds:from the SW (220 degrees) at 10 MPH (9 knots; 4.6 m/s)
Visibility:6 or more sm (10+ km)
Ceiling:at least 12,000 feet AGL
Clouds: few clouds at 1400 feet AGL, scattered clouds at 2500 feet AGL
Text:PROB30 1522/1605 BKN014
Forecast period:2200 UTC 15 August 2018 to 0500 UTC 16 August 2018
Forecast type:PROBABLE: 30 percent likelihood of the following during this time
Ceiling:1400 feet AGL
Clouds: broken clouds at 1400 feet AGL
Text:PROB30
Forecast period:0500 to 0600 UTC 16 August 2018
Forecast type:TEMPORARY: The following changes expected for less than half the time period
Visibility: 4 sm ( 6 km)
Ceiling:1000 feet AGL
Clouds: broken clouds at 1000 feet AGL
Weather:RA (moderate rain)

METAR for:
Text:No data found

TAF for:
Text:No data found